Time;durP1;ratioP1;P1;durP2;ratioP2;P2;SDS_P1;SDS_P2;PMS_P1;PMS_P2;Temp;Humidity;BMP_temperature;BMP_pressure;BME280_temperature;BME280_humidity;BME280_pressure;Samples;Min_cycle;Max_cycle;Signal;HPM_P1;HPM_P2
2023/10/27 00:01:34;;;;;;;9.82;3.25;;;10.80;99.90;;;;;;5028681;28;20284;-58
2023/10/27 00:04:02;;;;;;;14.73;3.88;;;10.80;99.90;;;;;;5032594;28;20238;-57
2023/10/27 00:06:32;;;;;;;7.20;3.15;;;10.70;99.90;;;;;;5032688;28;20306;-58
2023/10/27 00:09:00;;;;;;;10.55;3.05;;;10.70;99.90;;;;;;5032565;28;20213;-57
2023/10/27 00:11:28;;;;;;;9.82;2.88;;;10.80;99.90;;;;;;5032952;28;20256;-58
2023/10/27 00:13:56;;;;;;;12.63;3.40;;;10.80;99.90;;;;;;5030852;28;20207;-57
2023/10/27 00:16:25;;;;;;;9.40;3.20;;;10.80;99.90;;;;;;5031588;28;20262;-57
2023/10/27 00:18:53;;;;;;;11.18;3.47;;;10.80;99.90;;;;;;5057988;23;20316;-57
2023/10/27 00:21:21;;;;;;;9.88;3.60;;;10.80;99.90;;;;;;5046480;28;20305;-59
2023/10/27 00:23:49;;;;;;;8.23;3.13;;;10.80;99.90;;;;;;5051106;28;20306;-60
2023/10/27 00:26:17;;;;;;;15.93;3.85;;;10.80;99.90;;;;;;5050864;28;20233;-60
2023/10/27 00:28:46;;;;;;;13.20;3.55;;;10.80;99.90;;;;;;5038765;28;20258;-58
2023/10/27 00:31:14;;;;;;;10.98;3.50;;;10.80;99.90;;;;;;5031536;28;20633;-58
2023/10/27 00:33:43;;;;;;;10.25;3.45;;;10.80;99.90;;;;;;5032145;28;20199;-58
2023/10/27 00:36:11;;;;;;;7.38;2.88;;;10.80;99.90;;;;;;5037514;28;20234;-60
2023/10/27 00:38:39;;;;;;;15.80;3.35;;;10.80;99.90;;;;;;5036936;28;20257;-60
2023/10/27 00:41:07;;;;;;;10.40;3.15;;;10.70;99.90;;;;;;5029083;28;20238;-54
2023/10/27 00:43:35;;;;;;;8.18;3.20;;;10.70;99.90;;;;;;5032206;28;20626;-53
2023/10/27 00:46:03;;;;;;;12.80;2.60;;;10.70;99.90;;;;;;5031491;28;20344;-56
2023/10/27 00:48:31;;;;;;;10.93;3.13;;;10.70;99.90;;;;;;5032441;28;20222;-56
2023/10/27 00:51:01;;;;;;;8.10;2.83;;;10.70;99.90;;;;;;5032109;28;20253;-57
2023/10/27 00:53:29;;;;;;;14.90;3.28;;;10.70;99.90;;;;;;5030962;28;20757;-57
2023/10/27 00:55:57;;;;;;;9.65;3.47;;;10.70;99.90;;;;;;5045447;28;20230;-53
2023/10/27 00:58:24;;;;;;;12.57;3.22;;;10.70;99.90;;;;;;5042843;28;20249;-52
2023/10/27 01:00:52;;;;;;;12.63;2.80;;;10.70;99.90;;;;;;5043397;28;20209;-52
2023/10/27 01:03:20;;;;;;;8.43;3.25;;;10.70;99.90;;;;;;5042218;28;20202;-52
2023/10/27 01:05:48;;;;;;;9.85;3.95;;;10.60;99.90;;;;;;5045037;28;20297;-55
2023/10/27 01:08:17;;;;;;;13.18;3.10;;;10.60;99.90;;;;;;5042031;28;20267;-52
2023/10/27 01:10:45;;;;;;;10.05;3.00;;;10.60;99.90;;;;;;5049345;28;20725;-57
2023/10/27 01:13:13;;;;;;;13.25;3.50;;;10.60;99.90;;;;;;5040281;28;20206;-57
2023/10/27 01:15:41;;;;;;;14.77;3.45;;;10.60;99.90;;;;;;5048205;28;20204;-55
2023/10/27 01:18:09;;;;;;;8.75;3.25;;;10.60;99.90;;;;;;5046200;28;20292;-52
2023/10/27 01:20:37;;;;;;;10.77;3.25;;;10.50;99.90;;;;;;5042284;28;20266;-53
2023/10/27 01:23:06;;;;;;;10.27;3.03;;;10.50;99.90;;;;;;5042587;28;20296;-53
2023/10/27 01:25:34;;;;;;;14.50;3.10;;;10.50;99.90;;;;;;5042907;28;20208;-54
2023/10/27 01:28:02;;;;;;;9.52;3.03;;;10.50;99.90;;;;;;5034481;28;20272;-55
2023/10/27 01:30:30;;;;;;;11.50;3.05;;;10.50;99.90;;;;;;5044099;28;20202;-53
2023/10/27 01:32:58;;;;;;;9.65;3.00;;;10.50;99.90;;;;;;5047740;28;20846;-55
2023/10/27 01:35:26;;;;;;;8.73;3.08;;;10.50;99.90;;;;;;5038723;28;20210;-54
2023/10/27 01:37:54;;;;;;;7.95;3.17;;;10.40;99.90;;;;;;5038964;28;20309;-55
2023/10/27 01:40:23;;;;;;;7.80;2.88;;;10.40;99.90;;;;;;5042130;28;20256;-55
2023/10/27 01:42:51;;;;;;;6.88;2.72;;;10.40;99.90;;;;;;5042743;28;20201;-52
2023/10/27 01:45:19;;;;;;;6.80;2.92;;;10.40;99.90;;;;;;5047652;28;20598;-53
2023/10/27 01:47:47;;;;;;;11.00;3.13;;;10.40;99.90;;;;;;5047894;28;20217;-52
2023/10/27 01:50:15;;;;;;;7.97;3.55;;;10.40;99.90;;;;;;5041590;28;20206;-52
2023/10/27 01:52:43;;;;;;;9.63;2.95;;;10.30;99.90;;;;;;5047528;28;20625;-53
2023/10/27 01:55:11;;;;;;;10.18;3.13;;;10.30;99.90;;;;;;5039916;28;20249;-52
2023/10/27 01:57:40;;;;;;;13.25;3.25;;;10.30;99.90;;;;;;5042408;28;20236;-53
2023/10/27 02:00:09;;;;;;;6.53;3.17;;;10.30;99.90;;;;;;5034613;28;20272;-57
2023/10/27 02:02:37;;;;;;;12.70;3.38;;;10.30;99.90;;;;;;5044237;28;20229;-52
2023/10/27 02:05:06;;;;;;;10.02;3.33;;;10.20;99.90;;;;;;5044159;28;20210;-52
2023/10/27 02:07:33;;;;;;;11.68;3.00;;;10.20;99.90;;;;;;5047547;28;20224;-52
2023/10/27 02:10:01;;;;;;;5.88;2.70;;;10.20;99.90;;;;;;5047457;28;20305;-53
2023/10/27 02:12:29;;;;;;;6.68;2.70;;;10.20;99.90;;;;;;5036196;28;20255;-53
2023/10/27 02:14:58;;;;;;;9.50;3.05;;;10.20;99.90;;;;;;5038807;28;20289;-53
2023/10/27 02:17:27;;;;;;;8.95;3.10;;;10.20;99.90;;;;;;5025227;28;20288;-52
2023/10/27 02:19:55;;;;;;;6.10;2.50;;;10.20;99.90;;;;;;5031005;28;20207;-57
2023/10/27 02:22:23;;;;;;;9.07;2.78;;;10.20;99.90;;;;;;5022576;28;20207;-52
2023/10/27 02:24:51;;;;;;;9.65;3.33;;;10.20;99.90;;;;;;5030208;28;20225;-54
2023/10/27 02:27:19;;;;;;;6.38;2.72;;;10.20;99.90;;;;;;5030549;28;20222;-53
2023/10/27 02:29:47;;;;;;;7.70;3.33;;;10.20;99.90;;;;;;5030397;28;20703;-53
2023/10/27 02:32:16;;;;;;;15.77;3.53;;;10.10;99.90;;;;;;5030809;28;20298;-57
2023/10/27 02:34:44;;;;;;;9.52;3.03;;;10.10;99.90;;;;;;5030359;28;20238;-53
2023/10/27 02:37:12;;;;;;;6.78;2.70;;;10.10;99.90;;;;;;5030724;28;20211;-52
2023/10/27 02:39:40;;;;;;;14.73;3.22;;;10.10;99.90;;;;;;5030510;28;20213;-53
2023/10/27 02:42:08;;;;;;;13.98;3.15;;;10.10;99.90;;;;;;5030546;28;20297;-53
2023/10/27 02:44:36;;;;;;;5.70;2.92;;;10.10;99.90;;;;;;5035083;28;20714;-54
2023/10/27 02:47:05;;;;;;;7.57;2.90;;;10.10;99.90;;;;;;5038847;28;20648;-53
2023/10/27 02:49:34;;;;;;;9.65;3.10;;;10.10;99.90;;;;;;5054325;28;20562;-53
2023/10/27 02:52:02;;;;;;;16.95;3.85;;;10.10;99.90;;;;;;5036667;28;20310;-54
2023/10/27 02:54:30;;;;;;;7.00;3.63;;;10.10;99.90;;;;;;5034811;28;20201;-55
2023/10/27 02:56:58;;;;;;;11.82;3.63;;;10.10;99.90;;;;;;5045300;28;20297;-57
2023/10/27 02:59:25;;;;;;;6.57;3.40;;;10.10;99.90;;;;;;5048130;28;20222;-52
2023/10/27 03:01:54;;;;;;;7.47;3.10;;;10.10;99.90;;;;;;5045250;28;20245;-52
2023/10/27 03:04:22;;;;;;;9.15;3.40;;;10.20;99.90;;;;;;5041671;28;20735;-57
2023/10/27 03:06:51;;;;;;;16.45;3.88;;;10.20;99.90;;;;;;5048697;28;20205;-52
2023/10/27 03:09:19;;;;;;;11.30;3.53;;;10.20;99.90;;;;;;5045403;28;20317;-57
2023/10/27 03:11:47;;;;;;;15.45;3.50;;;10.20;99.90;;;;;;5037526;28;20209;-53
2023/10/27 03:14:15;;;;;;;8.63;3.25;;;10.20;99.90;;;;;;5043349;28;20301;-53
2023/10/27 03:16:43;;;;;;;12.57;3.97;;;10.30;99.90;;;;;;5033762;28;20211;-53
2023/10/27 03:19:11;;;;;;;10.88;3.95;;;10.30;99.90;;;;;;5036461;28;20231;-59
2023/10/27 03:21:39;;;;;;;10.40;3.83;;;10.30;99.90;;;;;;5046680;28;20202;-53
2023/10/27 03:24:09;;;;;;;12.40;3.72;;;10.30;99.90;;;;;;5045913;28;20293;-54
2023/10/27 03:26:36;;;;;;;10.63;3.28;;;10.30;99.90;;;;;;5035761;28;20238;-56
2023/10/27 03:29:05;;;;;;;14.73;3.35;;;10.40;99.90;;;;;;5032940;28;20306;-59
2023/10/27 03:31:32;;;;;;;7.18;3.00;;;10.40;99.90;;;;;;5049637;28;20264;-57
2023/10/27 03:34:01;;;;;;;10.63;3.55;;;10.40;99.90;;;;;;5032872;28;20217;-58
2023/10/27 03:36:29;;;;;;;8.85;3.72;;;10.40;99.90;;;;;;5027603;28;20205;-53
2023/10/27 03:38:57;;;;;;;14.75;3.63;;;10.40;99.90;;;;;;5040992;28;20318;-55
2023/10/27 03:41:26;;;;;;;12.55;3.58;;;10.40;99.90;;;;;;5038136;28;20211;-55
2023/10/27 03:43:54;;;;;;;8.13;3.45;;;10.40;99.90;;;;;;5045681;28;20658;-54
2023/10/27 03:46:22;;;;;;;11.10;3.85;;;10.40;99.90;;;;;;5036837;28;20686;-53
2023/10/27 03:48:50;;;;;;;13.63;3.47;;;10.40;99.90;;;;;;5044072;28;20603;-53
2023/10/27 03:51:18;;;;;;;6.60;3.40;;;10.40;99.90;;;;;;5034658;28;20198;-53
2023/10/27 03:53:47;;;;;;;11.93;3.33;;;10.40;99.90;;;;;;5043030;28;20306;-53
2023/10/27 03:56:15;;;;;;;10.43;3.55;;;10.40;99.90;;;;;;5044945;28;20234;-54
2023/10/27 03:58:45;;;;;;;8.02;2.85;;;10.40;99.90;;;;;;5039539;28;20227;-53
2023/10/27 04:01:15;;;;;;;9.30;3.05;;;10.40;99.90;;;;;;5042708;28;20203;-52
2023/10/27 04:03:43;;;;;;;12.57;3.55;;;10.40;99.90;;;;;;5045310;28;20212;-56
2023/10/27 04:06:11;;;;;;;7.97;3.17;;;10.50;99.90;;;;;;5035209;28;20301;-57
2023/10/27 04:08:39;;;;;;;14.52;3.95;;;10.50;99.90;;;;;;5032862;28;20223;-57
2023/10/27 04:11:07;;;;;;;10.93;3.53;;;10.50;99.90;;;;;;5032628;28;20305;-54
2023/10/27 04:13:35;;;;;;;8.80;3.10;;;10.50;99.90;;;;;;5032878;28;20727;-54
2023/10/27 04:16:04;;;;;;;9.27;3.50;;;10.50;99.90;;;;;;5031807;28;20305;-52
2023/10/27 04:18:32;;;;;;;10.93;3.88;;;10.60;99.90;;;;;;5023901;28;20234;-53
2023/10/27 04:21:03;;;;;;;11.57;3.88;;;10.50;99.90;;;;;;5030839;28;20213;-53
2023/10/27 04:23:31;;;;;;;10.55;3.70;;;10.50;99.90;;;;;;5031952;28;20630;-53
2023/10/27 04:25:59;;;;;;;14.55;4.18;;;10.60;99.90;;;;;;5031995;28;20207;-53
2023/10/27 04:28:27;;;;;;;9.30;3.70;;;10.50;99.90;;;;;;5032269;28;20337;-52
2023/10/27 04:30:55;;;;;;;13.20;4.00;;;10.60;99.90;;;;;;5032526;28;20320;-53
2023/10/27 04:33:24;;;;;;;9.18;3.13;;;10.50;99.90;;;;;;5031263;28;20221;-52
2023/10/27 04:35:53;;;;;;;10.68;3.83;;;10.60;99.90;;;;;;5031119;28;20211;-53
2023/10/27 04:38:21;;;;;;;7.72;3.13;;;10.60;99.90;;;;;;5041543;28;20257;-54
2023/10/27 04:40:51;;;;;;;9.43;3.33;;;10.60;99.90;;;;;;5035245;28;20293;-53
2023/10/27 04:43:21;;;;;;;13.15;4.22;;;10.60;99.90;;;;;;5041865;28;20203;-53
2023/10/27 04:45:49;;;;;;;9.27;3.30;;;10.60;99.90;;;;;;5051592;28;20562;-53
2023/10/27 04:48:17;;;;;;;8.05;3.40;;;10.60;99.90;;;;;;5034451;28;20284;-53
2023/10/27 04:50:52;;;;;;;7.03;3.47;;;10.60;99.90;;;;;;5032079;28;20195;-53
2023/10/27 04:53:20;;;;;;;10.15;3.53;;;10.60;99.90;;;;;;5028365;28;20207;-57
2023/10/27 04:55:48;;;;;;;11.00;4.03;;;10.60;99.90;;;;;;5033253;28;20860;-52
2023/10/27 04:58:17;;;;;;;11.40;4.30;;;10.60;99.90;;;;;;5041937;28;20258;-53
2023/10/27 05:00:45;;;;;;;13.38;4.60;;;10.60;99.90;;;;;;5038481;28;20360;-53
2023/10/27 05:03:13;;;;;;;16.90;5.05;;;10.60;99.90;;;;;;5039416;28;20229;-53
2023/10/27 05:05:41;;;;;;;13.75;5.13;;;10.60;99.90;;;;;;5046998;28;20669;-55
2023/10/27 05:08:10;;;;;;;17.58;5.07;;;10.70;99.90;;;;;;5030767;28;20266;-57
2023/10/27 05:10:42;;;;;;;15.00;4.95;;;10.70;99.90;;;;;;5033167;28;20590;-54
2023/10/27 05:13:09;;;;;;;6.82;4.03;;;10.70;99.90;;;;;;5031659;28;20207;-53
2023/10/27 05:15:38;;;;;;;15.70;4.65;;;10.70;99.90;;;;;;5026673;28;20213;-53
2023/10/27 05:18:06;;;;;;;10.93;4.57;;;10.70;99.90;;;;;;5028890;28;20230;-58
2023/10/27 05:20:37;;;;;;;12.18;3.97;;;10.70;99.90;;;;;;5030631;28;20265;-52
2023/10/27 05:23:05;;;;;;;12.13;4.60;;;10.70;99.90;;;;;;5024055;28;20734;-60
2023/10/27 05:25:35;;;;;;;10.10;3.42;;;10.80;99.90;;;;;;5026197;28;20315;-54
2023/10/27 05:28:03;;;;;;;15.38;4.45;;;10.80;99.90;;;;;;5030590;28;20229;-57
2023/10/27 05:30:34;;;;;;;13.10;4.40;;;10.80;99.90;;;;;;5030134;28;20210;-57
2023/10/27 05:33:02;;;;;;;12.40;4.82;;;10.80;99.90;;;;;;5031363;28;20294;-53
2023/10/27 05:35:30;;;;;;;15.57;6.20;;;10.80;99.90;;;;;;5031178;28;20210;-54
2023/10/27 05:37:57;;;;;;;15.02;6.43;;;10.80;99.90;;;;;;5031332;28;20272;-55
2023/10/27 05:40:31;;;;;;;16.52;6.15;;;10.80;99.90;;;;;;5031118;28;20325;-57
2023/10/27 05:43:01;;;;;;;16.25;7.22;;;10.80;99.90;;;;;;5030954;28;20238;-53
2023/10/27 05:45:29;;;;;;;18.02;6.90;;;10.80;99.90;;;;;;5030584;28;20213;-53
2023/10/27 05:47:56;;;;;;;22.23;8.45;;;10.80;99.90;;;;;;5027873;28;20222;-53
2023/10/27 05:50:24;;;;;;;19.55;8.02;;;10.80;99.90;;;;;;5029670;28;20210;-53
2023/10/27 05:52:52;;;;;;;18.50;8.25;;;10.80;99.90;;;;;;5031326;28;20202;-52
2023/10/27 05:55:20;;;;;;;18.48;8.60;;;10.80;99.90;;;;;;5028300;28;20297;-54
2023/10/27 05:57:48;;;;;;;19.92;9.13;;;10.80;99.90;;;;;;5030243;28;20226;-55
2023/10/27 06:00:18;;;;;;;23.90;9.63;;;10.90;99.90;;;;;;5029856;28;20313;-56
2023/10/27 06:02:46;;;;;;;20.02;9.05;;;10.90;99.90;;;;;;5031094;28;20209;-56
2023/10/27 06:05:14;;;;;;;25.48;10.52;;;10.90;99.90;;;;;;5030842;28;20218;-57
2023/10/27 06:07:42;;;;;;;18.27;9.88;;;10.90;99.90;;;;;;5031033;28;20754;-57
2023/10/27 06:10:10;;;;;;;22.35;10.82;;;10.90;99.90;;;;;;5030915;28;20661;-53
2023/10/27 06:12:38;;;;;;;20.42;9.93;;;11.00;99.90;;;;;;5031283;28;20249;-57
2023/10/27 06:15:07;;;;;;;21.23;10.93;;;11.00;99.90;;;;;;5030729;28;20249;-53
2023/10/27 06:17:36;;;;;;;18.70;9.95;;;11.00;99.90;;;;;;5031140;28;20371;-53
2023/10/27 06:20:05;;;;;;;16.80;10.07;;;11.00;99.90;;;;;;5030731;28;20238;-56
2023/10/27 06:22:44;;;;;;;22.20;10.43;;;11.00;99.90;;;;;;5044798;22;20235;-55
2023/10/27 06:25:13;;;;;;;20.67;11.02;;;11.00;99.90;;;;;;5054153;28;20876;-57
2023/10/27 06:27:41;;;;;;;18.77;9.52;;;11.00;99.90;;;;;;5054509;28;20667;-55
2023/10/27 06:30:09;;;;;;;19.58;10.55;;;11.00;99.90;;;;;;5054254;28;20716;-57
2023/10/27 06:32:38;;;;;;;19.30;10.35;;;11.10;99.90;;;;;;5054566;28;20313;-56
2023/10/27 06:35:06;;;;;;;18.25;9.40;;;11.10;99.90;;;;;;5054560;28;20206;-54
2023/10/27 06:37:35;;;;;;;16.40;9.50;;;11.10;99.90;;;;;;5054580;28;20296;-52
2023/10/27 06:40:04;;;;;;;14.07;8.82;;;11.10;99.90;;;;;;5054151;28;20225;-58
2023/10/27 06:42:32;;;;;;;12.02;7.95;;;11.10;99.90;;;;;;5054485;28;20257;-53
2023/10/27 06:45:00;;;;;;;15.40;8.05;;;11.30;99.90;;;;;;5054021;28;20292;-53
2023/10/27 06:47:28;;;;;;;15.07;7.78;;;11.30;99.90;;;;;;5054103;28;20210;-53
2023/10/27 06:49:58;;;;;;;10.02;7.72;;;11.30;99.90;;;;;;5054372;28;20202;-55
2023/10/27 06:52:26;;;;;;;12.15;7.60;;;11.20;99.90;;;;;;5054663;28;20647;-54
2023/10/27 06:54:54;;;;;;;13.98;6.97;;;11.20;99.90;;;;;;5054085;28;20297;-53
2023/10/27 06:57:21;;;;;;;11.40;6.55;;;11.30;99.90;;;;;;5054031;28;20301;-55
2023/10/27 06:59:49;;;;;;;13.80;6.20;;;11.30;99.90;;;;;;5054204;28;20210;-55
2023/10/27 07:02:17;;;;;;;10.20;6.15;;;11.20;99.90;;;;;;5053862;28;20202;-56
2023/10/27 07:04:45;;;;;;;11.77;5.80;;;11.30;99.90;;;;;;5053872;28;20682;-57
2023/10/27 07:07:15;;;;;;;10.70;5.80;;;11.30;99.90;;;;;;5053767;28;20678;-55
2023/10/27 07:09:48;;;;;;;9.88;5.45;;;11.30;99.90;;;;;;5046925;28;20224;-54
2023/10/27 07:12:16;;;;;;;10.20;5.40;;;11.30;99.90;;;;;;5053907;28;20639;-55
2023/10/27 07:14:45;;;;;;;9.63;5.78;;;11.30;99.90;;;;;;5053707;28;20731;-56
2023/10/27 07:17:13;;;;;;;10.23;5.13;;;11.30;99.90;;;;;;5053620;28;20674;-54
2023/10/27 07:19:41;;;;;;;6.43;4.68;;;11.30;99.90;;;;;;5054148;28;20237;-54
2023/10/27 07:22:09;;;;;;;11.10;5.47;;;11.20;99.90;;;;;;5053592;28;20236;-54
2023/10/27 07:24:38;;;;;;;7.75;5.18;;;11.20;99.90;;;;;;5053692;28;20294;-53
2023/10/27 07:27:06;;;;;;;7.82;4.55;;;11.20;99.90;;;;;;5053592;28;20296;-53
2023/10/27 07:29:34;;;;;;;7.88;4.70;;;11.30;99.90;;;;;;5053538;28;20678;-55
2023/10/27 07:32:03;;;;;;;6.22;4.57;;;11.30;99.90;;;;;;5053484;28;20295;-56
2023/10/27 07:34:31;;;;;;;5.85;4.13;;;11.30;99.90;;;;;;5053437;28;20237;-53
2023/10/27 07:36:59;;;;;;;5.80;4.68;;;11.30;99.90;;;;;;5053436;28;20209;-55
2023/10/27 07:39:28;;;;;;;6.82;4.15;;;11.30;99.90;;;;;;5053475;28;20202;-54
2023/10/27 07:41:57;;;;;;;8.30;4.10;;;11.30;99.90;;;;;;5052940;28;20711;-57
2023/10/27 07:44:25;;;;;;;6.03;3.78;;;11.30;99.90;;;;;;5053119;28;20262;-54
2023/10/27 07:46:53;;;;;;;8.27;3.67;;;11.30;99.90;;;;;;5051318;28;20285;-53
2023/10/27 07:49:21;;;;;;;11.80;3.63;;;11.40;99.90;;;;;;5052570;28;20767;-53
2023/10/27 07:51:49;;;;;;;4.40;2.55;;;11.30;99.90;;;;;;5052984;28;20209;-53
2023/10/27 07:54:17;;;;;;;6.00;3.20;;;11.30;99.90;;;;;;5052934;28;20226;-54
2023/10/27 07:56:46;;;;;;;4.22;3.03;;;11.30;99.90;;;;;;5052796;28;20256;-53
2023/10/27 07:59:15;;;;;;;3.15;2.28;;;11.30;99.90;;;;;;5053303;28;20206;-53
2023/10/27 08:01:43;;;;;;;2.42;2.10;;;11.40;99.90;;;;;;5052718;28;20317;-57
2023/10/27 08:04:10;;;;;;;4.28;2.58;;;11.40;99.90;;;;;;5052834;28;20283;-60
2023/10/27 08:06:38;;;;;;;3.92;2.45;;;11.40;99.90;;;;;;5052716;28;20209;-53
2023/10/27 08:09:06;;;;;;;3.83;2.60;;;11.40;99.90;;;;;;5052941;28;20214;-53
2023/10/27 08:11:34;;;;;;;5.40;2.42;;;11.40;99.90;;;;;;5052692;28;20261;-55
2023/10/27 08:14:04;;;;;;;3.63;3.38;;;11.40;99.90;;;;;;5052955;28;20261;-53
2023/10/27 08:16:33;;;;;;;7.75;4.20;;;11.40;99.90;;;;;;5052440;28;20553;-54
2023/10/27 08:19:01;;;;;;;5.28;3.83;;;11.40;99.90;;;;;;5051779;28;20305;-58
2023/10/27 08:21:29;;;;;;;5.10;3.97;;;11.40;99.90;;;;;;5052495;28;20226;-58
2023/10/27 08:23:57;;;;;;;5.28;3.60;;;11.30;99.90;;;;;;5048538;28;20922;-54
2023/10/27 08:26:25;;;;;;;6.63;3.35;;;11.30;99.90;;;;;;5052196;28;20206;-54
2023/10/27 08:28:52;;;;;;;2.92;2.63;;;11.40;99.90;;;;;;5052637;28;20288;-53
2023/10/27 08:31:20;;;;;;;5.22;2.72;;;11.30;99.90;;;;;;5052012;28;20670;-54
2023/10/27 08:33:50;;;;;;;7.28;3.05;;;11.40;99.90;;;;;;5052454;28;20218;-55
2023/10/27 08:36:19;;;;;;;3.15;2.00;;;11.30;99.90;;;;;;5051771;28;20291;-54
2023/10/27 08:38:49;;;;;;;3.35;2.63;;;11.30;99.90;;;;;;5052211;28;20583;-54
2023/10/27 08:41:17;;;;;;;5.07;2.20;;;11.30;99.90;;;;;;5052051;28;20257;-53
2023/10/27 08:43:45;;;;;;;4.60;2.30;;;11.30;99.90;;;;;;5052419;28;20226;-53
2023/10/27 08:46:13;;;;;;;2.65;1.75;;;11.30;99.90;;;;;;5051244;28;20225;-53
2023/10/27 08:48:42;;;;;;;2.78;1.85;;;11.30;99.90;;;;;;5051921;28;20212;-54
2023/10/27 08:51:13;;;;;;;3.22;1.95;;;11.30;99.90;;;;;;5051978;28;20263;-55
2023/10/27 08:53:41;;;;;;;6.22;2.25;;;11.30;99.90;;;;;;5052106;28;20706;-52
2023/10/27 08:56:12;;;;;;;4.68;2.10;;;11.30;99.90;;;;;;5051658;28;20237;-52
2023/10/27 08:58:40;;;;;;;2.33;2.08;;;11.30;99.90;;;;;;5051978;28;20213;-53
2023/10/27 09:01:08;;;;;;;2.97;2.67;;;11.30;99.90;;;;;;5051374;28;20311;-57
2023/10/27 09:03:35;;;;;;;6.93;2.70;;;11.30;99.90;;;;;;5051772;28;20236;-53
2023/10/27 09:06:04;;;;;;;4.25;3.22;;;11.30;99.90;;;;;;5051511;28;20214;-52
2023/10/27 09:08:34;;;;;;;2.80;2.22;;;11.30;99.90;;;;;;5050004;28;20221;-58
2023/10/27 09:11:01;;;;;;;3.10;2.47;;;11.30;99.90;;;;;;5051471;28;20229;-53
2023/10/27 09:13:29;;;;;;;4.07;2.70;;;11.40;99.90;;;;;;5051443;28;20232;-53
2023/10/27 09:15:57;;;;;;;2.20;1.80;;;11.40;99.90;;;;;;5051159;28;20659;-53
2023/10/27 09:18:34;;;;;;;5.80;2.20;;;11.40;99.90;;;;;;5051136;28;20292;-52
2023/10/27 09:21:02;;;;;;;3.97;1.80;;;11.40;99.90;;;;;;5051286;28;20216;-53
2023/10/27 09:23:43;;;;;;;5.72;1.55;;;11.50;99.90;;;;;;5051280;28;20241;-52
2023/10/27 09:26:11;;;;;;;2.13;1.30;;;11.50;99.90;;;;;;5050860;28;20667;-53
2023/10/27 09:28:39;;;;;;;1.42;1.23;;;11.50;99.90;;;;;;5051586;28;20237;-53
2023/10/27 09:31:07;;;;;;;2.25;1.20;;;11.50;99.90;;;;;;5051215;28;20202;-53
2023/10/27 09:33:35;;;;;;;2.65;1.00;;;11.50;99.90;;;;;;5051354;28;20230;-54
2023/10/27 09:36:04;;;;;;;2.28;1.00;;;11.50;99.90;;;;;;5050866;28;20206;-53
2023/10/27 09:38:32;;;;;;;2.05;0.80;;;11.60;99.90;;;;;;5051231;28;20293;-53
2023/10/27 09:41:02;;;;;;;2.15;0.60;;;11.60;99.90;;;;;;5050895;28;20214;-53
2023/10/27 09:43:30;;;;;;;5.22;0.95;;;11.60;99.90;;;;;;5049002;28;20312;-52
2023/10/27 09:45:59;;;;;;;3.63;0.60;;;11.60;99.90;;;;;;5050524;28;20202;-53
2023/10/27 09:48:29;;;;;;;0.60;0.60;;;11.70;99.90;;;;;;5051054;28;20229;-53
2023/10/27 09:51:00;;;;;;;0.40;0.40;;;11.70;99.90;;;;;;5050508;28;20205;-53
2023/10/27 09:53:29;;;;;;;0.88;0.60;;;11.70;99.90;;;;;;5049376;28;20222;-54
2023/10/27 09:55:58;;;;;;;2.88;0.40;;;11.80;99.90;;;;;;5048992;28;20208;-52
2023/10/27 09:58:28;;;;;;;0.47;0.47;;;11.90;99.90;;;;;;5048297;28;20894;-54
2023/10/27 10:00:56;;;;;;;3.05;0.40;;;12.00;99.90;;;;;;5050734;28;20581;-55
2023/10/27 10:03:27;;;;;;;1.45;0.55;;;12.20;99.90;;;;;;5050810;28;20268;-54
2023/10/27 10:06:12;;;;;;;1.08;0.50;;;12.30;99.90;;;;;;5042849;28;20229;-58
2023/10/27 10:08:41;;;;;;;3.45;0.47;;;12.50;99.90;;;;;;5050862;28;20292;-53
2023/10/27 10:11:13;;;;;;;2.13;0.38;;;12.80;99.90;;;;;;5050758;28;20213;-53
2023/10/27 10:13:44;;;;;;;0.93;0.40;;;13.20;99.90;;;;;;5050741;28;20311;-53
2023/10/27 10:16:12;;;;;;;1.08;0.38;;;13.70;99.90;;;;;;5049845;28;20240;-54
2023/10/27 10:18:52;;;;;;;1.65;0.40;;;14.20;99.90;;;;;;5050219;28;20926;-56
2023/10/27 10:21:35;;;;;;;0.32;0.32;;;14.60;99.90;;;;;;5050595;28;20202;-53
2023/10/27 10:24:09;;;;;;;0.85;0.40;;;15.00;99.90;;;;;;5050571;28;20237;-53
2023/10/27 10:27:10;;;;;;;0.90;0.40;;;15.30;99.90;;;;;;5050405;28;20212;-52
2023/10/27 10:29:40;;;;;;;0.98;0.30;;;15.10;99.90;;;;;;5050838;28;20209;-56
2023/10/27 10:32:32;;;;;;;1.70;0.50;;;14.70;99.90;;;;;;5050553;28;20713;-56
2023/10/27 10:35:20;;;;;;;0.55;0.30;;;14.30;99.90;;;;;;5040499;28;20667;-55
2023/10/27 10:37:51;;;;;;;0.73;0.32;;;14.10;99.90;;;;;;5050910;28;20354;-53
2023/10/27 10:40:22;;;;;;;0.75;0.40;;;13.90;99.90;;;;;;5050938;28;20214;-57
2023/10/27 10:43:20;;;;;;;1.13;0.40;;;13.90;99.90;;;;;;5050500;28;20229;-56
2023/10/27 10:45:51;;;;;;;0.52;0.43;;;13.70;99.90;;;;;;5050113;28;20210;-52
2023/10/27 10:48:19;;;;;;;0.75;0.30;;;13.70;99.90;;;;;;5050831;28;20210;-55
2023/10/27 10:50:48;;;;;;;0.60;0.60;;;13.60;99.90;;;;;;5050196;28;20212;-56
2023/10/27 10:53:22;;;;;;;1.38;0.60;;;14.00;99.90;;;;;;5050653;28;20287;-57
2023/10/27 10:55:50;;;;;;;0.63;0.30;;;14.40;99.90;;;;;;5050007;28;20289;-56
2023/10/27 10:58:22;;;;;;;0.50;0.30;;;14.90;99.90;;;;;;5050739;28;20302;-52
2023/10/27 11:00:51;;;;;;;2.60;0.43;;;15.10;99.90;;;;;;5050382;28;20202;-52
2023/10/27 11:03:22;;;;;;;0.30;0.30;;;15.00;99.90;;;;;;5048459;28;20254;-54
2023/10/27 11:05:51;;;;;;;2.35;0.40;;;14.80;99.90;;;;;;5049973;28;20256;-53
2023/10/27 11:08:23;;;;;;;1.98;0.40;;;14.70;99.90;;;;;;5051358;28;20673;-52
2023/10/27 11:10:59;;;;;;;1.08;0.40;;;14.50;99.90;;;;;;5053879;28;20650;-54
2023/10/27 11:13:27;;;;;;;3.00;0.40;;;14.40;99.90;;;;;;5053949;28;20276;-54
2023/10/27 11:15:56;;;;;;;0.60;0.40;;;14.30;99.90;;;;;;5053625;28;20244;-55
2023/10/27 11:18:27;;;;;;;1.08;0.40;;;14.20;99.90;;;;;;5053871;28;20234;-53
2023/10/27 11:20:55;;;;;;;0.90;0.50;;;14.10;99.90;;;;;;5053369;28;20682;-55
2023/10/27 11:23:26;;;;;;;5.75;0.50;;;14.10;99.90;;;;;;5053606;28;20241;-52
2023/10/27 11:26:01;;;;;;;2.45;0.68;;;13.90;99.90;;;;;;5053446;28;20202;-53
2023/10/27 11:28:29;;;;;;;3.53;0.50;;;13.90;99.90;;;;;;5052483;28;20580;-55
2023/10/27 11:31:00;;;;;;;5.95;0.73;;;13.80;99.90;;;;;;5053467;28;20565;-55
2023/10/27 11:33:29;;;;;;;5.90;0.70;;;13.80;99.90;;;;;;5053528;28;20222;-52
2023/10/27 11:35:57;;;;;;;3.05;0.60;;;13.80;99.90;;;;;;5053394;28;20206;-53
2023/10/27 11:38:31;;;;;;;5.85;0.80;;;13.80;99.90;;;;;;5053637;28;20233;-55
2023/10/27 11:41:12;;;;;;;4.28;0.73;;;13.80;99.90;;;;;;5053373;28;20217;-54
2023/10/27 11:43:40;;;;;;;4.80;0.65;;;14.00;99.90;;;;;;5053110;28;20249;-53
2023/10/27 11:46:14;;;;;;;3.47;0.70;;;14.20;99.90;;;;;;5053000;28;20659;-52
2023/10/27 11:48:42;;;;;;;4.25;0.70;;;14.40;99.90;;;;;;5053460;28;20205;-56
2023/10/27 11:51:10;;;;;;;3.50;0.73;;;14.30;99.90;;;;;;5053293;28;20680;-55
2023/10/27 11:53:41;;;;;;;3.88;0.68;;;14.20;99.90;;;;;;5053024;28;20786;-56
2023/10/27 11:56:09;;;;;;;6.72;0.80;;;14.20;99.90;;;;;;5052687;28;20249;-53
2023/10/27 11:58:37;;;;;;;4.15;1.00;;;14.10;99.90;;;;;;5053428;28;20333;-53
2023/10/27 12:01:05;;;;;;;4.25;0.60;;;14.10;99.90;;;;;;5052834;28;20716;-52
2023/10/27 12:03:34;;;;;;;1.95;0.50;;;14.10;99.90;;;;;;5053007;28;20265;-54
2023/10/27 12:06:03;;;;;;;5.50;0.98;;;14.00;99.90;;;;;;5052611;28;20217;-56
2023/10/27 12:08:31;;;;;;;4.55;0.90;;;14.00;99.90;;;;;;5053117;28;20212;-53
2023/10/27 12:10:59;;;;;;;3.58;0.70;;;14.00;99.90;;;;;;5052577;28;20233;-53
2023/10/27 12:13:27;;;;;;;5.22;0.70;;;14.00;99.90;;;;;;5052913;28;20233;-53
2023/10/27 12:15:55;;;;;;;3.03;0.80;;;14.00;99.90;;;;;;5052599;28;20202;-52
2023/10/27 12:18:23;;;;;;;1.92;0.80;;;14.10;99.90;;;;;;5052905;28;20293;-53
2023/10/27 12:20:52;;;;;;;2.00;0.77;;;14.10;99.90;;;;;;5051429;28;20241;-53
2023/10/27 12:23:20;;;;;;;3.97;0.65;;;14.20;99.90;;;;;;5052205;28;20316;-54
2023/10/27 12:25:48;;;;;;;4.88;0.90;;;14.30;99.90;;;;;;5059200;22;20325;-72
2023/10/27 12:28:16;;;;;;;3.70;0.65;;;14.40;99.90;;;;;;5052843;28;20214;-72
2023/10/27 12:30:44;;;;;;;2.85;0.68;;;14.70;99.90;;;;;;5040720;28;20222;-72
2023/10/27 12:33:12;;;;;;;2.10;0.65;;;14.80;99.90;;;;;;5031798;28;20268;-72
2023/10/27 12:35:40;;;;;;;4.22;0.60;;;14.90;99.90;;;;;;5032996;28;20668;-72
2023/10/27 12:38:09;;;;;;;3.80;0.90;;;14.90;99.90;;;;;;5052476;28;20279;-72
2023/10/27 12:40:37;;;;;;;2.45;0.65;;;14.80;99.90;;;;;;5051759;28;20662;-72
2023/10/27 12:43:05;;;;;;;3.03;0.90;;;14.70;99.90;;;;;;5052390;28;20271;-72
2023/10/27 12:45:33;;;;;;;8.35;0.98;;;14.60;99.90;;;;;;5052227;28;20687;-72
2023/10/27 12:48:02;;;;;;;5.18;0.90;;;14.50;99.90;;;;;;5052319;28;20292;-72
2023/10/27 12:50:30;;;;;;;4.45;0.80;;;14.40;99.90;;;;;;5044910;28;20692;-72
2023/10/27 12:52:59;;;;;;;2.03;0.77;;;14.30;99.90;;;;;;5031908;28;20587;-72